Time;durP1;ratioP1;P1;durP2;ratioP2;P2;SDS_P1;SDS_P2;PMS_P1;PMS_P2;Temp;Humidity;BMP_temperature;BMP_pressure;BME280_temperature;BME280_humidity;BME280_pressure;Samples;Min_cycle;Max_cycle;Signal;HPM_P1;HPM_P2
2023/10/10 00:15:28;;;;;;;2.90;1.60;;;;;;;;;;20927177;27;20581;-67
2023/10/10 00:25:37;;;;;;;3.47;1.90;;;;;;;;;;20869695;28;20609;-66
2023/10/10 00:35:38;;;;;;;3.47;1.70;;;;;;;;;;20849699;28;20226;-66
2023/10/10 00:45:40;;;;;;;5.53;1.90;;;;;;;;;;20868777;28;20212;-66
2023/10/10 00:55:42;;;;;;;3.30;1.37;;;17.80;99.90;;;;;;20851863;28;20276;-66
2023/10/10 01:05:52;;;;;;;3.77;1.70;;;;;;;;;;20855808;28;20724;-66
2023/10/10 01:15:56;;;;;;;4.03;1.67;;;;;;;;;;20862513;28;20249;-66
2023/10/10 01:26:06;;;;;;;4.30;1.73;;;;;;;;;;20801314;28;20223;-67
2023/10/10 01:36:12;;;;;;;4.07;1.67;;;;;;;;;;20793084;28;20227;-66
2023/10/10 01:46:27;;;;;;;2.97;1.50;;;;;;;;;;20826366;28;20211;-66
2023/10/10 01:56:29;;;;;;;2.77;1.77;;;;;;;;;;20809978;28;20214;-66
2023/10/10 02:06:34;;;;;;;3.17;1.57;;;;;;;;;;20792434;28;20281;-65
2023/10/10 02:16:40;;;;;;;5.00;2.13;;;;;;;;;;20792652;28;20348;-66
2023/10/10 02:26:42;;;;;;;4.23;1.80;;;;;;;;;;20787909;28;20595;-66
2023/10/10 02:36:44;;;;;;;3.07;1.60;;;;;;;;;;20800028;28;20288;-66
2023/10/10 02:46:47;;;;;;;3.70;1.90;;;;;;;;;;20785143;28;20226;-66
2023/10/10 02:56:49;;;;;;;3.07;1.53;;;;;;;;;;20805433;28;20265;-66
2023/10/10 03:06:51;;;;;;;3.23;1.60;;;;;;;;;;20800283;28;20248;-66
2023/10/10 03:17:05;;;;;;;3.87;1.50;;;;;;;;;;20803766;28;20646;-66
2023/10/10 03:37:29;;;;;;;3.00;1.80;;;;;;;;;;20814273;28;20222;-66
2023/10/10 05:30:57;;;;;;;5.20;1.90;;;;;;;;;;20797752;28;20280;-67
2023/10/10 05:41:02;;;;;;;5.73;2.07;;;;;;;;;;20775034;28;20883;-66
2023/10/10 05:51:04;;;;;;;4.77;1.73;;;;;;;;;;20794807;28;20360;-67
2023/10/10 06:01:08;;;;;;;6.93;2.37;;;;;;;;;;20793854;28;20284;-66
2023/10/10 06:11:10;;;;;;;3.27;1.67;;;;;;;;;;20790452;28;20262;-67
2023/10/10 06:21:12;;;;;;;2.93;1.60;;;;;;;;;;20779286;23;20313;-75
2023/10/10 06:31:20;;;;;;;3.23;1.87;;;;;;;;;;20738267;28;20212;-75
2023/10/10 06:41:22;;;;;;;4.63;1.90;;;;;;;;;;20737797;28;20223;-76
2023/10/10 06:51:24;;;;;;;3.17;1.87;;;;;;;;;;20723906;28;20214;-76
2023/10/10 07:01:28;;;;;;;2.83;1.50;;;;;;;;;;20709282;28;20277;-75
2023/10/10 07:11:30;;;;;;;5.17;2.00;;;;;;;;;;20733011;28;20288;-76
2023/10/10 07:21:36;;;;;;;4.07;1.80;;;;;;;;;;20733088;28;20272;-76
2023/10/10 07:31:40;;;;;;;3.90;1.87;;;;;;;;;;20732145;28;20223;-76
2023/10/10 07:41:47;;;;;;;4.40;2.03;;;15.50;99.90;;;;;;20730047;28;20223;-76
2023/10/10 07:51:49;;;;;;;3.10;1.40;;;;;;;;;;20734881;28;20663;-76
2023/10/10 08:01:54;;;;;;;4.17;1.83;;;;;;;;;;20733113;28;20214;-76
2023/10/10 08:11:56;;;;;;;4.37;2.00;;;;;;;;;;20722039;28;20219;-76
2023/10/10 08:21:58;;;;;;;3.10;1.73;;;;;;;;;;20731671;28;20613;-76
2023/10/10 08:32:00;;;;;;;4.23;1.83;;;;;;;;;;20740370;28;20235;-76
2023/10/10 08:42:05;;;;;;;3.90;1.97;;;;;;;;;;20762549;28;20246;-76
2023/10/10 08:52:07;;;;;;;3.67;1.80;;;17.30;99.90;;;;;;20743720;28;20273;-77
2023/10/10 09:02:12;;;;;;;4.07;1.60;;;;;;;;;;20749692;28;20223;-77
2023/10/10 09:12:14;;;;;;;4.63;1.80;;;;;;;;;;20747866;28;20277;-77
2023/10/10 09:22:34;;;;;;;3.60;1.90;;;17.60;99.90;;;;;;20744121;28;20218;-77
2023/10/10 09:32:42;;;;;;;2.87;1.50;;;;;;;;;;20739423;28;20215;-77
2023/10/10 09:43:03;;;;;;;2.77;1.50;;;;;;;;;;20753221;28;20301;-77
2023/10/10 09:53:19;;;;;;;4.13;1.93;;;;;;;;;;20744843;28;20207;-77
2023/10/10 10:13:37;;;;;;;3.60;1.70;;;;;;;;;;20744148;28;20231;-78
2023/10/10 10:23:45;;;;;;;3.37;1.63;;;;;;;;;;20750422;28;20232;-77
2023/10/10 10:34:05;;;;;;;3.07;1.70;;;;;;;;;;20743384;28;20231;-77
2023/10/10 10:44:09;;;;;;;2.33;1.37;;;;;;;;;;20752611;28;20542;-78
2023/10/10 10:54:35;;;;;;;3.93;1.60;;;19.50;99.90;;;;;;20748539;28;20227;-77
2023/10/10 11:14:36;;;;;;;3.10;1.33;;;;;;;;;;20749289;28;20280;-77
2023/10/10 11:24:38;;;;;;;6.47;1.20;;;;;;;;;;20737446;28;20227;-78
2023/10/10 11:34:44;;;;;;;3.70;1.67;;;20.00;99.90;;;;;;20733585;28;20275;-78
2023/10/10 11:44:45;;;;;;;2.83;1.50;;;;;;;;;;20724926;28;20263;-77
2023/10/10 11:54:47;;;;;;;6.73;2.33;;;;;;;;;;20741282;28;20236;-77
2023/10/10 12:04:49;;;;;;;4.33;1.57;;;;;;;;;;20743994;28;20628;-77
2023/10/10 12:14:51;;;;;;;3.00;1.47;;;;;;;;;;20745660;28;20220;-77
2023/10/10 12:24:54;;;;;;;3.03;1.57;;;;;;;;;;20712979;28;20230;-76
2023/10/10 12:34:59;;;;;;;2.87;1.50;;;;;;;;;;20732636;28;20214;-77
2023/10/10 12:45:01;;;;;;;3.57;1.50;;;;;;;;;;20734065;28;20222;-77
2023/10/10 12:55:09;;;;;;;3.30;1.57;;;;;;;;;;20734600;28;20215;-75
2023/10/10 13:05:12;;;;;;;3.00;1.57;;;;;;;;;;20727003;28;20303;-77
2023/10/10 13:15:27;;;;;;;3.20;1.43;;;;;;;;;;20734032;28;20282;-78
2023/10/10 13:25:30;;;;;;;3.60;1.97;;;;;;;;;;20736170;28;20221;-77
2023/10/10 13:35:36;;;;;;;3.47;1.37;;;;;;;;;;20742354;28;20210;-77
2023/10/10 13:45:39;;;;;;;3.37;2.13;;;;;;;;;;20729754;28;20232;-77
2023/10/10 13:55:41;;;;;;;4.77;1.97;;;22.10;99.90;;;;;;20716766;28;20771;-77
2023/10/10 14:06:00;;;;;;;4.23;1.70;;;;;;;;;;20744720;28;20580;-77
2023/10/10 14:16:02;;;;;;;4.30;1.57;;;;;;;;;;20737447;28;20731;-77
2023/10/10 14:26:14;;;;;;;4.53;1.90;;;;;;;;;;20742732;28;20641;-77
2023/10/10 14:36:16;;;;;;;3.20;1.70;;;;;;;;;;20742175;28;20208;-76
2023/10/10 14:46:31;;;;;;;3.57;1.70;;;;;;;;;;20737547;28;20278;-76
2023/10/10 14:56:36;;;;;;;3.40;1.50;;;;;;;;;;20741615;28;20209;-76
2023/10/10 15:06:39;;;;;;;3.20;1.83;;;;;;;;;;20740093;28;20221;-76
2023/10/10 15:16:44;;;;;;;4.23;2.53;;;;;;;;;;20736689;28;20518;-75
2023/10/10 15:26:51;;;;;;;4.43;1.90;;;;;;;;;;20737434;28;20226;-74
2023/10/10 15:36:53;;;;;;;3.57;1.67;;;;;;;;;;20758988;28;20230;-77
2023/10/10 15:46:58;;;;;;;2.30;1.33;;;;;;;;;;20728108;28;20280;-75
2023/10/10 15:57:04;;;;;;;3.13;1.80;;;;;;;;;;20718387;28;20218;-76
2023/10/10 16:07:05;;;;;;;5.67;1.67;;;;;;;;;;20724599;28;20218;-76
2023/10/10 16:17:07;;;;;;;3.00;1.70;;;;;;;;;;20732751;28;20611;-76
2023/10/10 16:27:09;;;;;;;3.60;1.73;;;;;;;;;;20719789;28;20275;-76
2023/10/10 16:37:16;;;;;;;8.07;5.03;;;;;;;;;;20725542;28;20245;-76
2023/10/10 16:47:19;;;;;;;7.03;3.60;;;;;;;;;;20726309;28;20240;-76
2023/10/10 16:57:24;;;;;;;10.37;2.10;;;;;;;;;;20727748;28;20644;-76
2023/10/10 17:07:27;;;;;;;8.53;2.10;;;;;;;;;;20738072;28;20238;-76
2023/10/10 17:17:28;;;;;;;9.63;2.07;;;;;;;;;;20747704;28;20222;-76
2023/10/10 17:27:33;;;;;;;3.97;1.57;;;;;;;;;;20711526;28;20652;-76
2023/10/10 17:37:35;;;;;;;4.67;1.57;;;;;;;;;;20739670;28;20365;-76
2023/10/10 17:47:38;;;;;;;3.27;1.40;;;;;;;;;;20733920;28;20213;-75
2023/10/10 17:57:41;;;;;;;3.20;1.67;;;;;;;;;;20722129;28;20233;-75
2023/10/10 18:07:43;;;;;;;4.60;1.80;;;19.50;99.90;;;;;;20737553;28;20222;-75
2023/10/10 18:17:49;;;;;;;3.67;1.87;;;;;;;;;;20770247;22;20231;-66
2023/10/10 18:27:51;;;;;;;4.17;1.60;;;;;;;;;;20715800;28;20669;-66
2023/10/10 18:37:53;;;;;;;4.37;1.83;;;;;;;;;;20719820;28;20709;-65
2023/10/10 18:47:56;;;;;;;3.67;1.80;;;;;;;;;;20735482;28;20229;-66
2023/10/10 18:58:00;;;;;;;2.47;1.50;;;;;;;;;;20718491;28;20220;-66
2023/10/10 19:08:03;;;;;;;5.97;2.03;;;;;;;;;;20736643;28;20310;-66
2023/10/10 19:18:05;;;;;;;5.07;1.83;;;19.30;99.90;;;;;;20698975;28;20217;-65
2023/10/10 19:28:07;;;;;;;3.23;1.60;;;;;;;;;;20701443;28;20216;-65
2023/10/10 19:38:09;;;;;;;4.20;1.83;;;;;;;;;;20719523;28;20220;-66
2023/10/10 19:48:15;;;;;;;3.37;1.63;;;;;;;;;;20712061;28;20751;-65
2023/10/10 19:58:20;;;;;;;2.97;1.60;;;;;;;;;;20701011;28;20283;-65
2023/10/10 20:08:22;;;;;;;3.10;1.57;;;;;;;;;;20683308;28;20221;-66
2023/10/10 20:18:24;;;;;;;3.20;1.60;;;;;;;;;;20694633;28;20272;-65
2023/10/10 20:28:26;;;;;;;2.90;1.57;;;;;;;;;;20718385;28;20214;-64
2023/10/10 20:38:29;;;;;;;4.87;1.87;;;;;;;;;;20748828;28;20212;-65
2023/10/10 20:48:31;;;;;;;2.80;1.43;;;;;;;;;;20699590;28;20215;-65
2023/10/10 20:58:36;;;;;;;2.80;1.50;;;;;;;;;;20731545;28;20210;-64
2023/10/10 21:08:38;;;;;;;6.13;2.10;;;;;;;;;;20741387;28;20224;-65
2023/10/10 21:18:40;;;;;;;3.40;1.63;;;;;;;;;;20721085;28;20223;-64
2023/10/10 21:28:42;;;;;;;4.07;1.77;;;;;;;;;;20747149;28;20234;-66
2023/10/10 21:38:44;;;;;;;2.70;1.40;;;;;;;;;;20729459;28;20224;-64
2023/10/10 21:48:48;;;;;;;4.20;1.50;;;;;;;;;;20729347;28;20285;-66
2023/10/10 21:58:50;;;;;;;4.50;1.87;;;;;;;;;;20746419;28;20629;-65
2023/10/10 22:08:51;;;;;;;3.10;1.60;;;;;;;;;;20707040;28;20219;-65
2023/10/10 22:18:53;;;;;;;3.07;1.40;;;;;;;;;;20739852;28;20287;-66
2023/10/10 22:28:55;;;;;;;3.70;1.60;;;;;;;;;;20711028;28;20233;-66
2023/10/10 22:38:57;;;;;;;2.70;1.40;;;;;;;;;;20709220;28;20245;-66
2023/10/10 22:49:01;;;;;;;3.13;1.77;;;;;;;;;;20724407;28;20686;-66
2023/10/10 22:59:07;;;;;;;2.80;1.40;;;;;;;;;;20723895;28;20362;-66
2023/10/10 23:09:09;;;;;;;5.93;1.50;;;;;;;;;;20690352;28;20223;-66
2023/10/10 23:19:10;;;;;;;2.70;1.40;;;;;;;;;;20687812;28;20274;-66
2023/10/10 23:29:12;;;;;;;2.33;1.40;;;;;;;;;;20738886;28;20208;-66
2023/10/10 23:39:16;;;;;;;3.50;1.53;;;;;;;;;;20689407;28;20284;-66
2023/10/10 23:49:17;;;;;;;3.47;1.67;;;;;;;;;;20721062;28;20282;-66
2023/10/10 23:59:20;;;;;;;2.80;1.40;;;;;;;;;;20686633;28;20843;-67
